메인 페이지
METAR-TAF:

METAR-TAF

공항 :

헤시피, 페르남부쿠, 브라질

위도: 08-08S, 경도: 034-55W, 고도: 19m

현재 날씨관측

예보는 38분 전, 18:00시(UTC)에 발표되었습니다.
남동11kt
온도 28°C
습도 55%
기압 1016 hPa
시정 10km 이상
고도 3000ft 상공 구름 조금

METAR: SBRF 221800Z 14011KT 9999 FEW030 28/18 Q1016

시각: 15:38 (18:38 UTC)

예보

예보는 2 시간 38분 전, 16:00시(UTC)에 발표되었습니다.
예보 대상 시간: 22일 18시부터 23일 18시까지 (UTC)
남동10kt
시정: 8000m
고도 2000ft 상공 구름 보통

TAF: SBRF 221600Z 2218/2318 13010KT 8000 SCT020 TX28/2218Z TN23/2309Z RMK PEI

4,000개 이상의 공항 관측 자료 및 예보 (METAR 및 TAF 보고).

지도상에서 검색 가능한 기상관측소가 노란 점과 빨간 점으로 표시되어 있습니다.

기상관측소 명을 보려면 표시 위로 마우스를 이동하세요.

날씨 관측과 예보를 보려면 클릭하세요.

지도 변경 : 확대하려면 엑스 표시가 있는 녹색 버튼, 축소하려면 빼기 표시가 있는 녹색 버튼, 다음 페이지의 지도를 보려면 녹색 화살표를 클릭하세요.


METAR-TAF: